createdAt,value
2022-09-13T00:01:58.264Z,12.90
2022-09-13T00:07:01.057Z,12.80
2022-09-13T00:12:03.859Z,12.80
2022-09-13T00:17:06.645Z,12.80
2022-09-13T00:22:09.414Z,12.80
2022-09-13T00:27:13.098Z,12.80
2022-09-13T00:32:16.278Z,12.80
2022-09-13T00:37:18.940Z,12.90
2022-09-13T00:42:21.702Z,12.80
2022-09-13T00:47:24.410Z,12.90
2022-09-13T00:52:27.292Z,12.80
2022-09-13T00:57:31.006Z,12.80
2022-09-13T01:02:33.737Z,12.70
2022-09-13T01:07:36.971Z,12.80
2022-09-13T01:12:40.752Z,12.80
2022-09-13T01:17:43.399Z,12.70
2022-09-13T01:22:46.177Z,12.70
2022-09-13T01:27:49.042Z,12.60
2022-09-13T01:32:51.847Z,12.50
2022-09-13T01:37:54.670Z,11.70
2022-09-13T01:42:58.043Z,12.40
2022-09-13T01:48:00.874Z,12.40
2022-09-13T01:53:04.524Z,12.40
2022-09-13T01:58:07.611Z,12.40
2022-09-13T02:03:10.901Z,12.20
2022-09-13T02:08:13.595Z,12.20
2022-09-13T02:13:17.285Z,10.40
2022-09-13T02:18:20.076Z,12.00
2022-09-13T02:23:22.905Z,11.80
2022-09-13T02:28:25.577Z,11.70
2022-09-13T02:33:28.286Z,11.70
2022-09-13T02:38:30.965Z,11.70
2022-09-13T02:43:33.604Z,11.60
2022-09-13T02:48:37.487Z,11.60
2022-09-13T02:53:40.352Z,11.60
2022-09-13T02:58:43.190Z,11.50
2022-09-13T03:03:45.907Z,11.50
2022-09-13T03:08:48.589Z,11.40
2022-09-13T03:13:51.289Z,11.50
2022-09-13T03:18:54.013Z,12.60
2022-09-13T03:23:56.671Z,11.60
2022-09-13T03:29:04.409Z,11.50
2022-09-13T03:34:07.106Z,11.90
2022-09-13T03:39:14.439Z,11.40
2022-09-13T03:44:17.817Z,11.40
2022-09-13T03:49:20.519Z,11.60
2022-09-13T03:54:23.241Z,11.40
2022-09-13T03:59:26.367Z,11.50
2022-09-13T04:04:29.201Z,11.40
2022-09-13T04:09:31.922Z,11.60
2022-09-13T04:14:34.760Z,11.20
2022-09-13T04:19:37.458Z,11.30
2022-09-13T04:24:40.215Z,11.30
2022-09-13T04:29:42.950Z,11.40
2022-09-13T04:34:47.713Z,11.20
2022-09-13T04:39:50.483Z,11.30
2022-09-13T04:44:53.181Z,11.30
2022-09-13T04:49:55.978Z,11.40
2022-09-13T04:55:01.531Z,11.40
2022-09-13T05:00:05.161Z,11.40
2022-09-13T05:05:08.900Z,11.60
2022-09-13T05:10:14.234Z,11.50
2022-09-13T05:15:19.195Z,11.70
2022-09-13T05:20:22.351Z,11.80
2022-09-13T05:25:26.223Z,12.10
2022-09-13T05:30:29.958Z,12.40
2022-09-13T05:35:32.827Z,12.70
2022-09-13T05:40:44.349Z,12.90
2022-09-13T05:45:47.310Z,13.00
2022-09-13T05:50:58.675Z,13.20
2022-09-13T05:56:01.733Z,13.40
2022-09-13T06:01:04.836Z,13.50
2022-09-13T06:06:07.853Z,13.70
2022-09-13T06:11:14.348Z,13.80
2022-09-13T06:16:17.428Z,14.20
2022-09-13T06:21:29.090Z,14.50
2022-09-13T06:26:36.946Z,14.90
2022-09-13T06:31:43.930Z,15.20
2022-09-13T06:36:46.848Z,15.50
2022-09-13T06:41:49.720Z,15.80
2022-09-13T06:46:53.584Z,16.00
2022-09-13T06:51:56.354Z,16.20
2022-09-13T06:56:59.187Z,16.50
2022-09-13T07:02:02.127Z,16.70
2022-09-13T07:07:05.141Z,17.10
2022-09-13T07:12:08.991Z,17.40
2022-09-13T07:17:12.835Z,17.80
2022-09-13T07:22:16.747Z,18.20
2022-09-13T07:27:20.582Z,18.50
2022-09-13T07:32:23.413Z,18.90
2022-09-13T07:37:26.178Z,19.40
2022-09-13T07:42:28.966Z,19.80
2022-09-13T07:47:31.846Z,20.00
2022-09-13T07:52:37.690Z,20.30
2022-09-13T07:57:40.434Z,20.60
2022-09-13T08:02:44.259Z,21.00
2022-09-13T08:07:47.023Z,21.20
2022-09-13T08:12:50.848Z,21.60
2022-09-13T08:17:59.667Z,21.90
2022-09-13T08:23:02.409Z,22.20
2022-09-13T08:28:05.184Z,22.90
2022-09-13T08:33:07.998Z,22.50
2022-09-13T08:38:10.823Z,22.50
2022-09-13T08:43:14.902Z,22.50
2022-09-13T08:48:18.481Z,22.20
2022-09-13T08:53:21.189Z,22.20
2022-09-13T08:58:24.002Z,22.30
2022-09-13T09:03:26.685Z,22.20
2022-09-13T09:08:31.245Z,22.40
2022-09-13T09:13:34.070Z,22.60
2022-09-13T09:18:37.871Z,22.60
2022-09-13T09:23:40.744Z,22.50
2022-09-13T09:28:43.450Z,22.60
2022-09-13T09:33:46.288Z,22.90
2022-09-13T09:39:07.120Z,23.10
2022-09-13T09:44:09.984Z,23.10
2022-09-13T09:49:33.911Z,23.00
2022-09-13T09:54:39.075Z,23.20
2022-09-13T09:59:41.961Z,23.20
2022-09-13T10:04:45.114Z,23.40
2022-09-13T10:09:47.926Z,23.50
2022-09-13T10:14:53.139Z,23.50
2022-09-13T10:19:57.734Z,23.60
2022-09-13T10:25:00.956Z,23.60
2022-09-13T10:30:03.910Z,23.60
2022-09-13T10:35:08.835Z,23.70
2022-09-13T10:40:11.601Z,23.90
2022-09-13T10:45:17.603Z,24.00
2022-09-13T10:50:20.501Z,24.10
2022-09-13T10:55:24.042Z,24.30
2022-09-13T11:00:31.208Z,24.50
2022-09-13T11:05:37.325Z,24.80
2022-09-13T11:10:40.944Z,25.30
2022-09-13T11:15:43.627Z,26.20
2022-09-13T11:20:46.396Z,26.90
2022-09-13T11:25:49.043Z,27.00
2022-09-13T11:30:51.820Z,27.20
2022-09-13T11:35:54.652Z,27.10
2022-09-13T11:40:57.411Z,27.20
2022-09-13T11:46:00.189Z,27.30
2022-09-13T11:51:03.161Z,27.40
2022-09-13T11:56:05.939Z,27.40
2022-09-13T12:01:08.830Z,27.50
2022-09-13T12:06:11.692Z,27.80
2022-09-13T12:11:16.189Z,27.90
2022-09-13T12:16:19.266Z,28.00
2022-09-13T12:21:23.530Z,27.80
2022-09-13T12:26:26.346Z,27.80
2022-09-13T12:31:29.188Z,27.80
2022-09-13T12:36:32.276Z,27.40
2022-09-13T12:41:35.103Z,27.20
2022-09-13T12:46:37.887Z,26.90
2022-09-13T12:51:41.004Z,26.50
2022-09-13T12:56:44.644Z,26.30
2022-09-13T13:01:48.017Z,26.30
2022-09-13T13:06:51.367Z,26.20
2022-09-13T13:11:54.599Z,26.10
2022-09-13T13:16:57.418Z,26.10
2022-09-13T13:22:00.136Z,26.20
2022-09-13T13:27:03.061Z,26.20
2022-09-13T13:32:07.802Z,26.30
2022-09-13T13:37:10.824Z,26.30
2022-09-13T13:42:13.673Z,26.30
2022-09-13T13:47:16.447Z,26.30
2022-09-13T13:52:22.372Z,26.30
2022-09-13T13:57:25.318Z,26.30
2022-09-13T14:02:28.224Z,26.30
2022-09-13T14:07:31.460Z,26.40
2022-09-13T14:12:34.330Z,26.60
2022-09-13T14:17:37.241Z,26.80
2022-09-13T14:22:40.145Z,27.10
2022-09-13T14:27:43.953Z,27.20
2022-09-13T14:32:47.167Z,27.20
2022-09-13T14:37:50.126Z,27.30
2022-09-13T14:42:52.980Z,27.50
2022-09-13T14:47:55.901Z,27.50
2022-09-13T14:52:58.660Z,27.50
2022-09-13T14:58:03.517Z,27.50
2022-09-13T15:03:06.260Z,27.50
2022-09-13T15:08:10.132Z,27.50
2022-09-13T15:13:12.977Z,27.40
2022-09-13T15:18:17.785Z,26.90
2022-09-13T15:23:21.646Z,26.60
2022-09-13T15:28:24.305Z,26.50
2022-09-13T15:33:28.094Z,26.50
2022-09-13T15:38:31.685Z,26.60
2022-09-13T15:43:34.352Z,26.70
2022-09-13T15:48:37.113Z,26.50
2022-09-13T15:53:39.958Z,26.30
2022-09-13T15:58:42.816Z,26.00
2022-09-13T16:03:45.589Z,25.70
2022-09-13T16:08:48.366Z,25.40
2022-09-13T16:13:52.317Z,25.30
2022-09-13T16:18:55.155Z,25.10
2022-09-13T16:23:58.365Z,25.00
2022-09-13T16:29:01.058Z,25.00
2022-09-13T16:34:03.805Z,24.80
2022-09-13T16:39:07.544Z,24.60
2022-09-13T16:44:10.561Z,24.40
2022-09-13T16:49:13.334Z,24.20
2022-09-13T16:54:16.034Z,23.90
2022-09-13T16:59:18.733Z,23.80
2022-09-13T17:04:22.551Z,23.60
2022-09-13T17:09:27.559Z,23.40
2022-09-13T17:14:30.414Z,23.30
2022-09-13T17:19:33.526Z,23.20
2022-09-13T17:24:37.393Z,23.10
2022-09-13T17:29:40.138Z,23.00
2022-09-13T17:34:42.917Z,22.90
2022-09-13T17:39:46.241Z,22.90
2022-09-13T17:44:49.036Z,22.70
2022-09-13T17:49:53.192Z,22.60
2022-09-13T17:54:56.651Z,22.40
2022-09-13T17:59:59.435Z,22.30
2022-09-13T18:05:05.384Z,22.00
2022-09-13T18:10:24.955Z,22.00
2022-09-13T18:15:32.796Z,21.80
2022-09-13T18:20:39.961Z,21.80
2022-09-13T18:25:48.158Z,21.70
2022-09-13T18:30:51.000Z,21.50
2022-09-13T18:35:53.803Z,21.40
2022-09-13T18:40:56.544Z,21.30
2022-09-13T18:45:59.508Z,21.20
2022-09-13T18:51:02.395Z,21.20
2022-09-13T18:56:05.142Z,21.10
2022-09-13T19:01:07.902Z,21.10
2022-09-13T19:06:10.778Z,21.00
2022-09-13T19:11:45.216Z,20.90
2022-09-13T19:16:46.250Z,20.80
2022-09-13T19:21:49.111Z,20.80
2022-09-13T19:26:56.175Z,20.70
2022-09-13T19:31:59.054Z,20.70
2022-09-13T19:37:04.031Z,20.60
2022-09-13T19:42:06.934Z,20.60
2022-09-13T19:52:35.476Z,20.50
2022-09-13T19:57:39.977Z,20.50
2022-09-13T20:02:45.836Z,20.40
2022-09-13T20:07:51.916Z,20.30
2022-09-13T20:12:55.304Z,20.20
2022-09-13T20:17:58.240Z,20.10
2022-09-13T20:23:01.107Z,20.00
2022-09-13T20:28:04.093Z,19.90
2022-09-13T20:33:06.914Z,19.80
2022-09-13T20:38:09.853Z,19.60
2022-09-13T20:43:12.796Z,19.60
2022-09-13T20:48:16.137Z,19.50
